Time;durP1;ratioP1;P1;durP2;ratioP2;P2;SDS_P1;SDS_P2;PMS_P1;PMS_P2;Temp;Humidity;BMP_temperature;BMP_pressure;BME280_temperature;BME280_humidity;BME280_pressure;Samples;Min_cycle;Max_cycle;Signal;HPM_P1;HPM_P2
2023/12/01 00:00:52;;;;;;;;;;;;;;;1.62;92.74;98191.88;5115122;28;20369;-76
2023/12/01 00:03:21;;;;;;;;;;;;;;;1.59;92.58;98184.28;5116180;28;20480;-76
2023/12/01 00:05:50;;;;;;;;;;;;;;;1.58;92.96;98186.00;5114841;28;20319;-76
2023/12/01 00:08:19;;;;;;;;;;;;;;;1.60;93.40;98191.03;5115771;28;19919;-76
2023/12/01 00:10:48;;;;;;;;;;;;;;;1.62;92.51;98199.41;5114623;28;19920;-76
2023/12/01 00:13:17;;;;;;;;;;;;;;;1.62;92.89;98212.00;5097852;28;19926;-76
2023/12/01 00:15:47;;;;;;;;;;;;;;;1.67;92.46;98210.38;5115739;28;19919;-77
2023/12/01 00:18:16;;;;;;;;;;;;;;;1.67;92.75;98212.88;5097884;28;19920;-77
2023/12/01 00:20:44;;;;;;;;;;;;;;;1.66;92.37;98212.03;5115871;28;19919;-76
2023/12/01 00:23:13;;;;;;;;;;;;;;;1.67;92.72;98215.41;5115745;28;19927;-75
2023/12/01 00:25:42;;;;;;;;;;;;;;;1.68;92.38;98217.09;5115255;28;19935;-76
2023/12/01 00:28:11;;;;;;;;;;;;;;;1.64;92.91;98220.38;5115944;28;19923;-76
2023/12/01 00:30:40;;;;;;;;;;;;;;;1.63;93.00;98216.22;5097440;28;19968;-76
2023/12/01 00:33:10;;;;;;;;;;;;;;;1.66;92.64;98223.75;5115971;28;20022;-76
2023/12/01 00:35:39;;;;;;;;;;;;;;;1.64;93.07;98220.38;5114451;28;20022;-76
2023/12/01 00:38:08;;;;;;;;;;;;;;;1.58;92.45;98215.31;5114063;28;20285;-76
2023/12/01 00:40:36;;;;;;;;;;;;;;;1.61;93.12;98220.38;5115503;28;19919;-76
2023/12/01 00:43:05;;;;;;;;;;;;;;;1.68;92.73;98224.66;5115010;28;19926;-76
2023/12/01 00:45:35;;;;;;;;;;;;;;;1.72;92.78;98224.69;5115020;28;19919;-77
2023/12/01 00:48:03;;;;;;;;;;;;;;;1.76;92.97;98226.41;5115584;28;19920;-77
2023/12/01 00:50:34;;;;;;;;;;;;;;;1.75;93.07;98228.91;5120614;28;20120;-76
2023/12/01 00:53:02;;;;;;;;;;;;;;;1.72;92.69;98213.78;5125009;28;19955;-76
2023/12/01 00:55:31;;;;;;;;;;;;;;;1.70;92.81;98215.44;5132540;28;19941;-76
2023/12/01 00:58:00;;;;;;;;;;;;;;;1.66;92.84;98219.56;5132338;28;19942;-76
2023/12/01 01:00:29;;;;;;;;;;;;;;;1.68;92.76;98222.13;5132438;28;19920;-76
2023/12/01 01:02:59;;;;;;;;;;;;;;;1.71;93.00;98222.13;5115632;28;19919;-77
2023/12/01 01:05:28;;;;;;;;;;;;;;;1.69;93.24;98208.72;5131524;28;19919;-77
2023/12/01 01:07:59;;;;;;;;;;;;;;;1.69;92.83;98209.56;5112446;28;19919;-77
2023/12/01 01:10:28;;;;;;;;;;;;;;;1.72;92.42;98213.78;5125718;28;20370;-78
2023/12/01 01:12:57;;;;;;;;;;;;;;;1.72;92.38;98218.81;5118316;28;19926;-78
2023/12/01 01:15:25;;;;;;;;;;;;;;;1.76;92.78;98220.50;5115260;28;20010;-78
2023/12/01 01:17:54;;;;;;;;;;;;;;;1.74;92.61;98223.03;5097373;28;19920;-78
2023/12/01 01:20:23;;;;;;;;;;;;;;;1.77;92.47;98224.72;5115502;28;20348;-78
2023/12/01 01:22:52;;;;;;;;;;;;;;;1.77;92.75;98224.72;5115027;28;19941;-78
2023/12/01 01:25:22;;;;;;;;;;;;;;;1.77;92.81;98232.28;5113696;28;19920;-78
2023/12/01 01:27:51;;;;;;;;;;;;;;;1.78;93.10;98228.91;5113272;28;19926;-78
2023/12/01 01:30:20;;;;;;;;;;;;;;;1.76;92.58;98225.53;5113284;28;19920;-78
2023/12/01 01:32:49;;;;;;;;;;;;;;;1.75;92.25;98226.38;5114518;28;19920;-78
2023/12/01 01:35:17;;;;;;;;;;;;;;;1.80;93.01;98227.28;5096511;28;19920;-77
2023/12/01 01:37:46;;;;;;;;;;;;;;;1.78;92.69;98219.72;5096476;28;19919;-77
2023/12/01 01:40:15;;;;;;;;;;;;;;;1.80;92.66;98222.25;5113143;28;20381;-77
2023/12/01 01:42:45;;;;;;;;;;;;;;;1.78;92.51;98213.81;5113863;28;19924;-78
2023/12/01 01:45:14;;;;;;;;;;;;;;;1.82;92.37;98215.56;5113471;28;19946;-77
2023/12/01 01:47:43;;;;;;;;;;;;;;;1.81;92.84;98198.78;5114397;28;19930;-77
2023/12/01 01:50:11;;;;;;;;;;;;;;;1.84;92.65;98208.88;5114184;28;20010;-77
2023/12/01 01:52:41;;;;;;;;;;;;;;;1.87;92.10;98201.38;5113051;28;20369;-77
2023/12/01 01:55:10;;;;;;;;;;;;;;;1.92;92.35;98202.25;5114508;28;19926;-77
2023/12/01 01:57:44;;;;;;;;;;;;;;;1.90;92.67;98203.88;5064129;28;19919;-77
2023/12/01 02:00:16;;;;;;;;;;;;;;;1.90;92.47;98203.88;5098799;28;19920;-78
2023/12/01 02:02:46;;;;;;;;;;;;;;;1.89;92.76;98202.22;5117514;28;19920;-78
2023/12/01 02:05:15;;;;;;;;;;;;;;;1.89;92.94;98193.00;5121191;28;19920;-78
2023/12/01 02:07:44;;;;;;;;;;;;;;;1.85;92.68;98185.41;5122275;28;19924;-78
2023/12/01 02:10:15;;;;;;;;;;;;;;;1.83;92.81;98192.09;5073356;28;19992;-78
2023/12/01 02:12:49;;;;;;;;;;;;;;;1.81;92.74;98186.19;5122465;28;20027;-78
2023/12/01 02:15:21;;;;;;;;;;;;;;;1.80;91.97;98182.03;5119377;28;19920;-78
2023/12/01 02:17:49;;;;;;;;;;;;;;;1.76;92.53;98187.81;5120357;28;20339;-78
2023/12/01 02:20:18;;;;;;;;;;;;;;;1.76;92.31;98190.34;5119536;28;19920;-79
2023/12/01 02:22:48;;;;;;;;;;;;;;;1.73;92.38;98181.09;5120521;28;19920;-79
2023/12/01 02:25:17;;;;;;;;;;;;;;;1.77;92.36;98174.44;5118346;28;20018;-79
2023/12/01 02:27:46;;;;;;;;;;;;;;;1.79;92.14;98165.22;5118239;28;19920;-79
2023/12/01 02:30:15;;;;;;;;;;;;;;;1.82;92.30;98165.28;5117847;28;19919;-78
2023/12/01 02:32:44;;;;;;;;;;;;;;;1.85;92.12;98161.09;5116758;28;19932;-78
2023/12/01 02:35:13;;;;;;;;;;;;;;;1.82;92.82;98157.72;5118647;28;19945;-78
2023/12/01 02:37:42;;;;;;;;;;;;;;;1.80;91.92;98150.16;5086330;28;20289;-78
2023/12/01 02:40:16;;;;;;;;;;;;;;;1.84;91.85;98144.34;5120672;28;19998;-78
2023/12/01 02:42:46;;;;;;;;;;;;;;;1.86;92.30;98151.88;5117417;28;19924;-78
2023/12/01 02:45:14;;;;;;;;;;;;;;;1.85;91.92;98151.03;5117808;28;19951;-78
2023/12/01 02:47:45;;;;;;;;;;;;;;;1.82;92.69;98140.13;5116269;28;19926;-77
2023/12/01 02:50:14;;;;;;;;;;;;;;;1.86;92.99;98146.84;5116047;28;19972;-78
2023/12/01 02:52:43;;;;;;;;;;;;;;;1.85;92.07;98150.19;5117451;28;19934;-78
2023/12/01 02:55:13;;;;;;;;;;;;;;;1.82;92.60;98155.22;5117618;28;19943;-78
2023/12/01 02:57:43;;;;;;;;;;;;;;;1.83;92.06;98174.47;5116363;28;20373;-78
2023/12/01 03:00:13;;;;;;;;;;;;;;;1.86;91.91;98180.41;5117446;28;19920;-77
2023/12/01 03:02:43;;;;;;;;;;;;;;;1.85;91.95;98175.34;5117649;28;19924;-78
2023/12/01 03:05:12;;;;;;;;;;;;;;;1.86;92.64;98164.47;5117012;28;20307;-77
2023/12/01 03:07:41;;;;;;;;;;;;;;;1.84;92.64;98169.50;5099323;28;20022;-77
2023/12/01 03:10:09;;;;;;;;;;;;;;;1.83;92.05;98169.44;5117272;28;19951;-77
2023/12/01 03:12:41;;;;;;;;;;;;;;;1.81;92.04;98164.41;5099313;28;19920;-78
2023/12/01 03:15:11;;;;;;;;;;;;;;;1.83;92.71;98166.94;5099225;28;19920;-77
2023/12/01 03:17:41;;;;;;;;;;;;;;;1.84;92.79;98168.63;5115786;28;19919;-77
2023/12/01 03:20:10;;;;;;;;;;;;;;;1.84;91.77;98166.13;5116770;28;19920;-77
2023/12/01 03:22:40;;;;;;;;;;;;;;;1.82;92.48;98160.25;5115560;28;19947;-77
2023/12/01 03:25:11;;;;;;;;;;;;;;;1.82;92.42;98165.28;5116828;27;19919;-77
2023/12/01 03:27:43;;;;;;;;;;;;;;;1.80;91.72;98157.69;5115753;28;20386;-77
2023/12/01 03:30:16;;;;;;;;;;;;;;;1.78;92.63;98168.56;5116135;28;20415;-77
2023/12/01 03:32:46;;;;;;;;;;;;;;;1.74;91.82;98172.75;5115704;28;19930;-77
2023/12/01 03:35:15;;;;;;;;;;;;;;;1.74;92.51;98167.72;5115365;28;19972;-77
2023/12/01 03:37:45;;;;;;;;;;;;;;;1.77;92.18;98161.88;5116586;28;19919;-77
2023/12/01 03:40:15;;;;;;;;;;;;;;;1.78;91.79;98163.53;5116528;28;19931;-77
2023/12/01 03:42:46;;;;;;;;;;;;;;;1.80;92.11;98177.00;5116516;28;19920;-77
2023/12/01 03:45:17;;;;;;;;;;;;;;;1.83;91.88;98182.03;5115274;28;19919;-77
2023/12/01 03:47:46;;;;;;;;;;;;;;;1.81;91.91;98184.53;5115478;28;20331;-76
2023/12/01 03:50:15;;;;;;;;;;;;;;;1.81;92.02;98183.69;5116128;28;19976;-77
2023/12/01 03:52:45;;;;;;;;;;;;;;;1.80;91.83;98171.97;5116071;28;19920;-77
2023/12/01 03:55:14;;;;;;;;;;;;;;;1.81;92.63;98158.53;5114967;28;20328;-77
2023/12/01 03:57:46;;;;;;;;;;;;;;;1.78;92.11;98163.53;5116179;27;19919;-76
2023/12/01 04:00:16;;;;;;;;;;;;;;;1.71;92.16;98160.13;5115212;28;20014;-77
2023/12/01 04:02:48;;;;;;;;;;;;;;;1.72;92.11;98163.50;5116294;28;19926;-77
2023/12/01 04:05:18;;;;;;;;;;;;;;;1.74;92.28;98161.84;5116279;28;19954;-77
2023/12/01 04:07:51;;;;;;;;;;;;;;;1.76;91.94;98160.16;5114808;28;19966;-77
2023/12/01 04:10:25;;;;;;;;;;;;;;;1.79;92.06;98156.03;5115977;28;19919;-77
2023/12/01 04:13:06;;;;;;;;;;;;;;;1.81;92.38;98158.53;5114781;28;19920;-77
2023/12/01 04:15:37;;;;;;;;;;;;;;;1.86;91.87;98166.97;5097721;28;19926;-77
2023/12/01 04:18:07;;;;;;;;;;;;;;;1.84;92.07;98158.56;5114428;28;19927;-77
2023/12/01 04:20:38;;;;;;;;;;;;;;;1.84;91.89;98166.13;5114516;28;19926;-77
2023/12/01 04:23:09;;;;;;;;;;;;;;;1.83;92.33;98167.78;5115651;28;19927;-77
2023/12/01 04:25:39;;;;;;;;;;;;;;;1.79;92.05;98170.25;5114398;28;19919;-77
2023/12/01 04:28:10;;;;;;;;;;;;;;;1.74;92.00;98167.72;5115732;28;19927;-77
2023/12/01 04:30:38;;;;;;;;;;;;;;;1.71;92.58;98164.31;5114226;28;19926;-78
2023/12/01 04:33:07;;;;;;;;;;;;;;;1.65;92.66;98174.31;5115325;28;20369;-77
2023/12/01 04:35:37;;;;;;;;;;;;;;;1.63;91.95;98170.97;5115598;28;20379;-76
2023/12/01 04:38:05;;;;;;;;;;;;;;;1.61;92.70;98165.06;5115418;28;19924;-76
2023/12/01 04:40:36;;;;;;;;;;;;;;;1.59;92.08;98161.69;5115565;28;20022;-76
2023/12/01 04:43:06;;;;;;;;;;;;;;;1.59;92.06;98157.50;5097384;28;19923;-76
2023/12/01 04:45:37;;;;;;;;;;;;;;;1.66;92.10;98151.69;5115350;28;19919;-76
2023/12/01 04:48:08;;;;;;;;;;;;;;;1.70;92.57;98150.06;5115023;28;19919;-75
2023/12/01 04:50:40;;;;;;;;;;;;;;;1.71;92.73;98147.56;5115177;28;19920;-75
2023/12/01 04:53:09;;;;;;;;;;;;;;;1.74;92.22;98156.81;5115404;28;19919;-76
2023/12/01 04:55:38;;;;;;;;;;;;;;;1.75;92.39;98158.50;5097030;28;20373;-76
2023/12/01 04:58:06;;;;;;;;;;;;;;;1.72;92.10;98159.31;5113931;28;19923;-76
2023/12/01 05:00:36;;;;;;;;;;;;;;;1.71;92.96;98176.88;5114933;28;19920;-76
2023/12/01 05:03:06;;;;;;;;;;;;;;;1.70;92.43;98185.28;5114068;28;20026;-76
2023/12/01 05:05:36;;;;;;;;;;;;;;;1.68;92.68;98177.69;5114798;28;19927;-76
2023/12/01 05:08:06;;;;;;;;;;;;;;;1.73;92.24;98181.09;5114836;28;19926;-75
2023/12/01 05:10:35;;;;;;;;;;;;;;;1.76;92.32;98180.28;5115067;28;19920;-76
2023/12/01 05:13:04;;;;;;;;;;;;;;;1.79;92.88;98177.81;5113491;28;20007;-76
2023/12/01 05:15:33;;;;;;;;;;;;;;;1.80;92.55;98185.34;5114620;28;19920;-77
2023/12/01 05:18:06;;;;;;;;;;;;;;;1.81;92.39;98183.69;5114915;28;19923;-77
2023/12/01 05:20:35;;;;;;;;;;;;;;;1.82;92.89;98190.41;5114966;28;19923;-77
2023/12/01 05:23:05;;;;;;;;;;;;;;;1.80;92.86;98182.03;5114551;28;20015;-77
2023/12/01 05:25:34;;;;;;;;;;;;;;;1.73;91.94;98165.16;5114505;28;20018;-77
2023/12/01 05:28:04;;;;;;;;;;;;;;;1.69;92.69;98163.47;5113917;28;19919;-76
2023/12/01 05:30:34;;;;;;;;;;;;;;;1.69;92.56;98164.31;5097005;28;19926;-76
2023/12/01 05:33:05;;;;;;;;;;;;;;;1.74;92.03;98166.84;5113637;28;19920;-76
2023/12/01 05:35:35;;;;;;;;;;;;;;;1.76;92.94;98157.66;5113512;28;19926;-76
2023/12/01 05:38:05;;;;;;;;;;;;;;;1.75;92.45;98158.50;5114719;28;19926;-77
2023/12/01 05:40:36;;;;;;;;;;;;;;;1.69;92.14;98149.22;5114358;28;20283;-76
2023/12/01 05:43:05;;;;;;;;;;;;;;;1.66;92.74;98153.38;5115605;28;19966;-75
2023/12/01 05:45:35;;;;;;;;;;;;;;;1.69;92.50;98171.00;5117707;28;19920;-76
2023/12/01 05:48:07;;;;;;;;;;;;;;;1.73;92.55;98185.28;5117110;28;20361;-76
2023/12/01 05:50:41;;;;;;;;;;;;;;;1.77;92.58;98187.00;5117364;28;20022;-77
2023/12/01 05:53:13;;;;;;;;;;;;;;;1.81;92.71;98188.72;5117619;28;19920;-76
2023/12/01 05:55:42;;;;;;;;;;;;;;;1.85;92.14;98185.41;5118426;28;20002;-76
2023/12/01 05:58:13;;;;;;;;;;;;;;;1.87;92.39;98183.75;5118308;28;20377;-76
2023/12/01 06:00:42;;;;;;;;;;;;;;;1.84;91.98;98188.75;5118749;28;19923;-77
2023/12/01 06:03:12;;;;;;;;;;;;;;;1.76;92.49;98182.81;5118170;28;20390;-76
2023/12/01 06:05:41;;;;;;;;;;;;;;;1.69;91.82;98165.97;5117353;28;19921;-76
2023/12/01 06:08:10;;;;;;;;;;;;;;;1.64;92.69;98170.09;5118161;28;20044;-77
2023/12/01 06:10:40;;;;;;;;;;;;;;;1.69;92.63;98183.56;5118164;28;19924;-76
2023/12/01 06:13:09;;;;;;;;;;;;;;;1.74;92.43;98197.03;5118402;28;19931;-77
2023/12/01 06:15:42;;;;;;;;;;;;;;;1.75;92.06;98183.66;5118257;28;19927;-76
2023/12/01 06:18:12;;;;;;;;;;;;;;;1.73;92.36;98200.38;5117069;28;19969;-76
2023/12/01 06:20:40;;;;;;;;;;;;;;;1.72;92.67;98206.25;5117893;28;19920;-76
2023/12/01 06:23:10;;;;;;;;;;;;;;;1.72;92.42;98213.78;5099977;28;19970;-76
2023/12/01 06:25:41;;;;;;;;;;;;;;;1.74;91.89;98222.19;5116691;28;19963;-76
2023/12/01 06:28:10;;;;;;;;;;;;;;;1.80;92.06;98217.22;5116886;28;20388;-76
2023/12/01 06:30:40;;;;;;;;;;;;;;;1.79;92.38;98215.53;5117690;28;19959;-75
2023/12/01 06:33:09;;;;;;;;;;;;;;;1.78;92.02;98203.78;5117990;28;19920;-76
2023/12/01 06:35:39;;;;;;;;;;;;;;;1.74;92.62;98205.44;5116504;28;19923;-76
2023/12/01 06:38:08;;;;;;;;;;;;;;;1.70;92.61;98205.38;5116791;28;19924;-76
2023/12/01 06:40:37;;;;;;;;;;;;;;;1.74;92.03;98207.09;5099656;28;20022;-76
2023/12/01 06:43:09;;;;;;;;;;;;;;;1.82;92.27;98205.50;5116167;28;19919;-75
2023/12/01 06:45:41;;;;;;;;;;;;;;;1.84;92.63;98203.84;5117617;28;19923;-76
2023/12/01 06:48:12;;;;;;;;;;;;;;;1.87;91.90;98216.47;5115996;28;19919;-77
2023/12/01 06:50:43;;;;;;;;;;;;;;;1.85;92.29;98215.56;5117466;28;19920;-77
2023/12/01 06:53:13;;;;;;;;;;;;;;;1.88;92.45;98215.59;5116440;28;19946;-76
2023/12/01 06:55:41;;;;;;;;;;;;;;;1.92;92.08;98232.44;5119145;28;19919;-77
2023/12/01 06:58:10;;;;;;;;;;;;;;;1.94;92.33;98235.81;5117015;28;20314;-77
2023/12/01 07:00:39;;;;;;;;;;;;;;;1.89;92.83;98222.34;5117858;28;19930;-77
2023/12/01 07:03:09;;;;;;;;;;;;;;;1.84;91.77;98213.91;5116147;28;19920;-77
2023/12/01 07:05:39;;;;;;;;;;;;;;;1.81;92.25;98219.75;5117517;27;19976;-77
2023/12/01 07:08:11;;;;;;;;;;;;;;;1.80;91.74;98219.75;5117567;28;19924;-76
2023/12/01 07:10:41;;;;;;;;;;;;;;;1.85;91.94;98220.59;5116994;28;19920;-76
2023/12/01 07:13:13;;;;;;;;;;;;;;;1.91;91.76;98218.16;5117491;28;19920;-77
2023/12/01 07:15:42;;;;;;;;;;;;;;;1.89;92.25;98212.28;5113530;22;19924;-76
2023/12/01 07:18:11;;;;;;;;;;;;;;;1.86;92.47;98227.34;5076259;28;19974;-77
2023/12/01 07:20:43;;;;;;;;;;;;;;;1.84;92.20;98229.00;5076650;28;19927;-75
2023/12/01 07:23:14;;;;;;;;;;;;;;;1.86;91.98;98239.91;5058750;28;20010;-75
2023/12/01 07:25:47;;;;;;;;;;;;;;;1.90;92.68;98244.13;5057043;28;19921;-75
2023/12/01 07:28:16;;;;;;;;;;;;;;;1.93;92.07;98254.22;5057846;28;20446;-75
2023/12/01 07:30:49;;;;;;;;;;;;;;;1.90;91.85;98254.19;5075074;28;19920;-77
2023/12/01 07:33:19;;;;;;;;;;;;;;;1.85;92.52;98250.78;5058149;28;19952;-74
2023/12/01 07:35:51;;;;;;;;;;;;;;;1.87;92.26;98249.16;5074466;28;19942;-76
2023/12/01 07:38:22;;;;;;;;;;;;;;;1.89;91.88;98242.47;5065404;22;19921;-76
2023/12/01 07:40:51;;;;;;;;;;;;;;;1.96;92.28;98264.31;5055250;28;20374;-77
2023/12/01 07:43:21;;;;;;;;;;;;;;;2.02;92.50;98259.34;5055122;28;19924;-77
2023/12/01 07:45:51;;;;;;;;;;;;;;;2.07;91.68;98267.78;5074867;22;19920;-77
2023/12/01 07:48:23;;;;;;;;;;;;;;;2.05;91.97;98277.00;5075734;28;19976;-75
2023/12/01 07:50:53;;;;;;;;;;;;;;;2.05;92.08;98284.53;5085446;22;19970;-76
2023/12/01 07:53:24;;;;;;;;;;;;;;;2.08;91.52;98293.78;5082983;28;19931;-78
2023/12/01 07:55:57;;;;;;;;;;;;;;;2.08;91.73;98294.63;5076410;28;20282;-76
2023/12/01 07:58:27;;;;;;;;;;;;;;;2.11;91.50;98289.66;5075645;28;20015;-75
2023/12/01 08:00:59;;;;;;;;;;;;;;;2.12;91.65;98285.44;5074376;28;19928;-77
2023/12/01 08:03:28;;;;;;;;;;;;;;;2.16;91.82;98279.63;5101391;22;19927;-79
2023/12/01 08:06:00;;;;;;;;;;;;;;;2.16;91.96;98277.94;5092030;22;19927;-78
2023/12/01 08:08:31;;;;;;;;;;;;;;;2.14;91.42;98261.13;5066783;28;19971;-78
2023/12/01 08:11:07;;;;;;;;;;;;;;;2.14;91.69;98264.50;5063841;28;19920;-78
2023/12/01 08:13:36;;;;;;;;;;;;;;;2.16;91.83;98262.84;5062490;28;19927;-79
2023/12/01 08:16:05;;;;;;;;;;;;;;;2.18;91.25;98270.41;5056300;28;20325;-77
2023/12/01 08:18:35;;;;;;;;;;;;;;;2.17;91.93;98278.78;5072083;28;19927;-78
2023/12/01 08:21:12;;;;;;;;;;;;;;;2.21;91.32;98290.59;5055101;28;20372;-80
2023/12/01 08:23:49;;;;;;;;;;;;;;;2.26;91.94;98282.22;5055709;28;19990;-79
2023/12/01 08:26:26;;;;;;;;;;;;;;;2.27;91.40;98281.41;5053940;28;19974;-77
2023/12/01 08:28:58;;;;;;;;;;;;;;;2.23;91.61;98288.91;5055150;28;19921;-76
2023/12/01 08:31:30;;;;;;;;;;;;;;;2.22;91.69;98303.16;5053279;28;19927;-76
2023/12/01 08:33:59;;;;;;;;;;;;;;;2.29;91.95;98309.94;5046739;28;19924;-80
2023/12/01 08:36:31;;;;;;;;;;;;;;;2.35;91.69;98297.41;5070487;28;20392;-80
2023/12/01 08:39:03;;;;;;;;;;;;;;;2.38;91.43;98294.06;5054701;28;19920;-78
2023/12/01 08:41:33;;;;;;;;;;;;;;;2.35;91.69;98289.84;5054395;28;19921;-79
2023/12/01 08:44:02;;;;;;;;;;;;;;;2.38;91.54;98294.91;5053846;28;20343;-75
2023/12/01 08:46:32;;;;;;;;;;;;;;;2.47;91.46;98289.97;5036519;28;19951;-76
2023/12/01 08:49:01;;;;;;;;;;;;;;;2.54;91.66;98285.84;5073170;22;19924;-77
2023/12/01 08:51:30;;;;;;;;;;;;;;;2.58;91.11;98302.66;5056872;28;19925;-76
2023/12/01 08:54:04;;;;;;;;;;;;;;;2.60;91.69;98295.94;5074232;28;19928;-78
2023/12/01 08:56:35;;;;;;;;;;;;;;;2.62;91.37;98294.28;5073800;28;19921;-77
2023/12/01 08:59:07;;;;;;;;;;;;;;;2.64;91.51;98285.91;5074293;28;19921;-75
2023/12/01 09:01:40;;;;;;;;;;;;;;;2.63;91.33;98286.75;5081007;22;19920;-80
2023/12/01 09:04:10;;;;;;;;;;;;;;;2.61;90.61;98290.94;5039607;28;20363;-75
2023/12/01 09:06:39;;;;;;;;;;;;;;;2.61;90.49;98293.47;5074150;28;19960;-75
2023/12/01 09:09:24;;;;;;;;;;;;;;;2.64;91.19;98287.59;5074265;28;19927;-75
2023/12/01 09:12:01;;;;;;;;;;;;;;;2.69;90.92;98283.44;5073064;28;19967;-75
2023/12/01 09:14:42;;;;;;;;;;;;;;;2.71;90.77;98289.34;5074124;28;19927;-74
2023/12/01 09:17:19;;;;;;;;;;;;;;;2.77;91.15;98293.56;5072782;28;19924;-75
2023/12/01 09:19:51;;;;;;;;;;;;;;;2.84;90.71;98311.25;5073910;28;19987;-76
2023/12/01 09:22:49;;;;;;;;;;;;;;;2.83;91.00;98306.22;5073060;28;20011;-74
2023/12/01 09:25:39;;;;;;;;;;;;;;;2.82;90.36;98307.03;5012033;28;19921;-75
2023/12/01 09:28:10;;;;;;;;;;;;;;;2.85;90.68;98297.84;5073869;28;19958;-76
2023/12/01 09:30:39;;;;;;;;;;;;;;;2.90;90.20;98290.31;5074224;28;19927;-75
2023/12/01 09:33:10;;;;;;;;;;;;;;;3.01;90.20;98289.53;5072695;28;19928;-73
2023/12/01 09:35:57;;;;;;;;;;;;;;;3.04;90.22;98269.41;5089178;28;19927;-74
2023/12/01 09:38:28;;;;;;;;;;;;;;;2.99;90.03;98278.63;5072550;28;20375;-75
2023/12/01 09:41:03;;;;;;;;;;;;;;;2.92;90.34;98273.53;5074130;28;19920;-74
2023/12/01 09:43:35;;;;;;;;;;;;;;;2.83;90.43;98273.47;5073841;28;20092;-74
2023/12/01 09:46:08;;;;;;;;;;;;;;;2.80;90.15;98268.41;5073655;28;19931;-74
2023/12/01 09:48:48;;;;;;;;;;;;;;;;;;;;;
2023/12/01 09:51:34;;;;;;;;;;;;;;;2.70;89.70;98262.47;5071515;28;19928;-73
2023/12/01 09:54:06;;;;;;;;;;;;;;;2.68;90.12;98261.63;5073555;28;19920;-74
2023/12/01 09:56:39;;;;;;;;;;;;;;;2.68;90.16;98252.38;5074053;28;19943;-75
2023/12/01 09:59:16;;;;;;;;;;;;;;;2.69;90.14;98251.53;5073623;28;20286;-75
2023/12/01 10:01:47;;;;;;;;;;;;;;;2.67;90.11;98245.66;5072045;28;20296;-74
2023/12/01 10:04:16;;;;;;;;;;;;;;;2.65;89.87;98242.28;5073638;28;19920;-74
2023/12/01 10:06:50;;;;;;;;;;;;;;;2.66;89.91;98241.44;5073516;28;19924;-75
2023/12/01 10:09:32;;;;;;;;;;;;;;;2.65;90.16;98234.72;5072611;28;19970;-73
2023/12/01 10:12:09;;;;;;;;;;;;;;;2.62;89.44;98239.75;5073986;28;20015;-74
2023/12/01 10:14:41;;;;;;;;;;;;;;;2.61;90.29;98230.50;5071745;28;19924;-75
2023/12/01 10:17:24;;;;;;;;;;;;;;;2.64;90.22;98230.50;5073678;28;20019;-75
2023/12/01 10:19:56;;;;;;;;;;;;;;;2.62;89.59;98231.34;5073519;28;19926;-74
2023/12/01 10:22:25;;;;;;;;;;;;;;;2.58;89.47;98238.03;5072240;28;19920;-73
2023/12/01 10:25:03;;;;;;;;;;;;;;;2.58;90.10;98237.19;5056535;28;20329;-74
2023/12/01 10:27:35;;;;;;;;;;;;;;;2.55;90.19;98244.72;5053376;28;19921;-74
2023/12/01 10:30:16;;;;;;;;;;;;;;;2.51;90.32;98246.38;5057030;28;19932;-75
2023/12/01 10:32:59;;;;;;;;;;;;;;;2.50;90.11;98254.75;5055983;28;19928;-73
2023/12/01 10:35:29;;;;;;;;;;;;;;;2.46;90.22;98253.06;5057046;28;19920;-72
2023/12/01 10:38:07;;;;;;;;;;;;;;;2.41;90.07;98254.69;5057310;28;19948;-74
2023/12/01 10:40:52;;;;;;;;;;;;;;;2.39;90.24;98250.47;5045074;28;19971;-73
2023/12/01 10:43:34;;;;;;;;;;;;;;;2.39;89.83;98251.31;5055849;28;19920;-72
2023/12/01 10:46:06;;;;;;;;;;;;;;;2.38;89.83;98244.59;5057203;28;20422;-72
2023/12/01 10:48:57;;;;;;;;;;;;;;;2.33;90.16;98231.09;5056772;28;19924;-73
2023/12/01 10:51:29;;;;;;;;;;;;;;;2.35;90.01;98229.44;5056663;28;19955;-72
2023/12/01 10:54:00;;;;;;;;;;;;;;;2.32;89.98;98221.91;5056488;28;19920;-72
2023/12/01 10:56:30;;;;;;;;;;;;;;;2.30;90.46;98213.50;5055513;28;20012;-72
2023/12/01 11:02:17;;;;;;;;;;;;;;;2.28;90.15;98219.34;4994816;28;19970;-72
2023/12/01 11:04:55;;;;;;;;;;;;;;;2.26;90.97;98214.28;5056599;28;20259;-72
2023/12/01 11:07:38;;;;;;;;;;;;;;;2.24;90.39;98215.94;5056770;28;20371;-71
2023/12/01 11:10:33;;;;;;;;;;;;;;;2.22;90.42;98214.25;5056664;28;19921;-71
2023/12/01 11:13:33;;;;;;;;;;;;;;;2.21;90.52;98208.34;5051673;28;19921;-71
2023/12/01 11:16:02;;;;;;;;;;;;;;;2.25;90.64;98202.53;5056527;28;20347;-71
2023/12/01 11:21:31;;;;;;;;;;;;;;;2.22;90.62;98212.56;5055530;28;19920;-71
2023/12/01 11:27:04;;;;;;;;;;;;;;;2.21;91.62;98200.00;5055982;28;20003;-71
2023/12/01 11:29:35;;;;;;;;;;;;;;;2.20;90.73;98199.16;5055978;28;19927;-71
2023/12/01 11:32:04;;;;;;;;;;;;;;;2.20;90.90;98204.19;5055821;28;19963;-71
2023/12/01 11:34:35;;;;;;;;;;;;;;;2.19;91.20;98196.59;5055883;28;19921;-71
2023/12/01 11:37:06;;;;;;;;;;;;;;;2.16;91.03;98197.41;5054937;28;20363;-71
2023/12/01 11:39:36;;;;;;;;;;;;;;;2.14;91.03;98193.19;5055239;28;20386;-71
2023/12/01 11:42:15;;;;;;;;;;;;;;;2.17;90.91;98194.06;5055455;28;20458;-71
2023/12/01 11:44:44;;;;;;;;;;;;;;;2.12;91.91;98198.22;5054368;28;19942;-71
2023/12/01 11:47:14;;;;;;;;;;;;;;;2.08;91.66;98204.06;5055993;28;19927;-71
2023/12/01 11:49:45;;;;;;;;;;;;;;;2.07;91.51;98199.84;5055890;28;19921;-71
2023/12/01 11:52:18;;;;;;;;;;;;;;;2.02;91.05;98201.50;5056127;28;20019;-71
2023/12/01 11:54:49;;;;;;;;;;;;;;;2.02;91.14;98202.34;5055464;28;19933;-71
2023/12/01 11:57:20;;;;;;;;;;;;;;;2.00;91.84;98208.19;5055434;28;19921;-71
2023/12/01 11:59:49;;;;;;;;;;;;;;;2.03;91.18;98205.69;5055759;28;20370;-71
2023/12/01 12:02:30;;;;;;;;;;;;;;;2.07;91.43;98204.88;5054985;28;19966;-71
2023/12/01 12:05:05;;;;;;;;;;;;;;;2.01;91.89;98207.38;5055309;28;19927;-70
2023/12/01 12:07:35;;;;;;;;;;;;;;;2.01;91.45;98202.34;5037675;28;19928;-70
2023/12/01 12:10:04;;;;;;;;;;;;;;;1.96;91.38;98203.97;5055141;28;20023;-73
2023/12/01 12:12:33;;;;;;;;;;;;;;;1.98;92.00;98202.28;5055092;28;19960;-73
2023/12/01 12:21:39;;;;;;;;;;;;;;;2.02;91.90;98209.03;5010370;28;19944;-73
2023/12/01 12:24:19;;;;;;;;;;;;;;;2.01;92.14;98202.34;5055009;28;19920;-71
2023/12/01 12:27:27;;;;;;;;;;;;;;;2.03;91.64;98183.06;5055084;28;19927;-74
2023/12/01 12:30:18;;;;;;;;;;;;;;;2.02;91.64;98173.81;5030443;28;19921;-73
2023/12/01 12:32:49;;;;;;;;;;;;;;;1.98;91.85;98172.13;5053566;28;19936;-70
2023/12/01 12:38:39;;;;;;;;;;;;;;;1.99;91.57;98176.34;5051425;28;19971;-72
2023/12/01 12:41:23;;;;;;;;;;;;;;;1.98;92.14;98187.22;5053760;28;19978;-74
2023/12/01 12:43:55;;;;;;;;;;;;;;;1.92;91.52;98187.16;5054918;28;19920;-72
2023/12/01 12:46:24;;;;;;;;;;;;;;;1.88;92.23;98187.94;5054512;28;20008;-72
2023/12/01 12:48:58;;;;;;;;;;;;;;;1.85;92.01;98181.22;5054675;28;19921;-72
2023/12/01 12:51:28;;;;;;;;;;;;;;;1.82;91.87;98182.88;5052970;28;20428;-71
2023/12/01 12:53:57;;;;;;;;;;;;;;;1.81;92.34;98181.19;5054299;28;19920;-73
2023/12/01 12:56:28;;;;;;;;;;;;;;;1.82;91.91;98180.34;5054528;28;19928;-72
2023/12/01 12:59:07;;;;;;;;;;;;;;;1.87;92.03;98188.78;5054361;28;20295;-70
2023/12/01 13:01:35;;;;;;;;;;;;;;;1.94;92.91;98191.34;5052759;28;19921;-70
2023/12/01 13:04:05;;;;;;;;;;;;;;;1.91;91.86;98191.34;5053268;28;19934;-72
2023/12/01 13:06:33;;;;;;;;;;;;;;;1.91;92.47;98200.56;5052872;28;19952;-72
2023/12/01 13:09:18;;;;;;;;;;;;;;;1.89;92.20;98203.06;5054558;28;19921;-73
2023/12/01 13:11:49;;;;;;;;;;;;;;;1.90;92.11;98208.91;5054101;28;19943;-73
2023/12/01 13:14:17;;;;;;;;;;;;;;;1.92;92.05;98204.78;5054669;28;19921;-74
2023/12/01 13:16:46;;;;;;;;;;;;;;;1.87;92.20;98191.31;5054302;28;20288;-73
2023/12/01 13:19:24;;;;;;;;;;;;;;;1.81;92.69;98178.66;5053138;28;19928;-74
2023/12/01 13:21:53;;;;;;;;;;;;;;;1.80;92.11;98182.84;5054026;28;19964;-73
2023/12/01 13:24:25;;;;;;;;;;;;;;;1.81;92.22;98193.75;5054438;28;19948;-74
2023/12/01 13:26:57;;;;;;;;;;;;;;;1.81;92.36;98188.72;5053902;28;19921;-73
2023/12/01 13:29:25;;;;;;;;;;;;;;;1.82;92.75;98180.34;5053899;28;20363;-77
2023/12/01 13:31:54;;;;;;;;;;;;;;;1.82;92.73;98187.91;5053772;28;20307;-75
2023/12/01 13:34:23;;;;;;;;;;;;;;;1.86;93.25;98195.50;5052672;28;19921;-75
2023/12/01 13:36:52;;;;;;;;;;;;;;;1.90;92.90;98198.84;5053913;28;19921;-74
2023/12/01 13:39:21;;;;;;;;;;;;;;;1.81;92.39;98187.06;5053594;28;20011;-78